Time;durP1;ratioP1;P1;durP2;ratioP2;P2;SDS_P1;SDS_P2;PMS_P1;PMS_P2;Temp;Humidity;BMP_temperature;BMP_pressure;BME280_temperature;BME280_humidity;BME280_pressure;Samples;Min_cycle;Max_cycle;Signal;HPM_P1;HPM_P2
2021/07/30 00:02:15;;;;;;;7.40;5.30;;;13.90;99.90;;;;;;4963560;28;20467;-73
2021/07/30 00:04:42;;;;;;;7.25;5.65;;;13.80;99.90;;;;;;4965450;28;20086;-73
2021/07/30 00:07:09;;;;;;;13.20;5.97;;;13.80;99.90;;;;;;4964694;28;20102;-72
2021/07/30 00:09:36;;;;;;;11.18;5.80;;;13.80;99.90;;;;;;4965501;28;20050;-72
2021/07/30 00:12:03;;;;;;;8.35;5.93;;;13.80;99.90;;;;;;4972737;28;20050;-73
2021/07/30 00:14:30;;;;;;;13.88;5.90;;;13.80;99.90;;;;;;4978069;28;20057;-72
2021/07/30 00:16:57;;;;;;;12.30;6.05;;;13.80;99.90;;;;;;4982079;28;20475;-72
2021/07/30 00:19:24;;;;;;;9.68;5.53;;;13.80;99.90;;;;;;4984773;28;20054;-73
2021/07/30 00:21:51;;;;;;;9.55;5.57;;;13.90;99.90;;;;;;4973575;28;20054;-72
2021/07/30 00:24:17;;;;;;;10.20;5.60;;;13.80;99.90;;;;;;4968054;28;20054;-73
2021/07/30 00:26:44;;;;;;;10.77;6.22;;;13.80;99.90;;;;;;4964376;28;20097;-73
2021/07/30 00:29:11;;;;;;;13.27;5.85;;;13.80;99.90;;;;;;4948973;28;20182;-72
2021/07/30 00:31:38;;;;;;;12.35;6.90;;;13.90;99.90;;;;;;4965959;28;20117;-72
2021/07/30 00:34:04;;;;;;;8.75;5.70;;;13.80;99.90;;;;;;4966629;28;20066;-73
2021/07/30 00:36:31;;;;;;;12.05;5.07;;;13.80;99.90;;;;;;4965962;28;20427;-72
2021/07/30 00:38:58;;;;;;;10.65;5.57;;;13.90;99.90;;;;;;4964998;28;20058;-72
2021/07/30 00:41:25;;;;;;;9.35;5.50;;;13.90;99.90;;;;;;4968381;28;20042;-73
2021/07/30 00:43:51;;;;;;;10.20;5.78;;;13.90;99.90;;;;;;4975004;28;20050;-71
2021/07/30 00:46:19;;;;;;;9.95;5.47;;;13.90;99.90;;;;;;4959136;28;20430;-74
2021/07/30 00:48:46;;;;;;;11.70;5.63;;;13.90;99.90;;;;;;4982272;28;20181;-73
2021/07/30 00:51:14;;;;;;;10.68;5.88;;;14.00;99.90;;;;;;4977192;28;20042;-72
2021/07/30 00:53:42;;;;;;;9.77;5.40;;;13.90;99.90;;;;;;4947777;28;20054;-72
2021/07/30 00:56:09;;;;;;;13.95;6.10;;;14.00;99.90;;;;;;4969214;28;20054;-72
2021/07/30 00:58:35;;;;;;;10.15;5.88;;;13.90;99.90;;;;;;4965850;28;20054;-73
2021/07/30 01:01:02;;;;;;;12.98;6.18;;;13.90;99.90;;;;;;4963338;28;20113;-74
2021/07/30 01:03:31;;;;;;;12.13;6.50;;;13.80;99.90;;;;;;4965869;28;20511;-74
2021/07/30 01:05:58;;;;;;;8.82;6.22;;;13.70;99.90;;;;;;4976908;28;20121;-73
2021/07/30 01:08:25;;;;;;;9.77;6.47;;;13.60;99.90;;;;;;4985567;28;20066;-73
2021/07/30 01:10:52;;;;;;;12.63;6.95;;;13.50;99.90;;;;;;4983140;28;20042;-73
2021/07/30 01:13:19;;;;;;;14.32;6.85;;;13.40;99.90;;;;;;4974521;28;20101;-74
2021/07/30 01:15:46;;;;;;;12.65;6.78;;;13.40;99.90;;;;;;4982726;28;20428;-72
2021/07/30 01:18:13;;;;;;;11.10;7.00;;;13.30;99.90;;;;;;4983217;28;20046;-72
2021/07/30 01:20:43;;;;;;;9.50;6.47;;;13.30;99.90;;;;;;4981914;28;20743;-73
2021/07/30 01:23:11;;;;;;;10.32;6.05;;;13.10;99.90;;;;;;4963689;28;20073;-71
2021/07/30 01:25:38;;;;;;;14.90;7.10;;;13.10;99.90;;;;;;4969167;28;20517;-74
2021/07/30 01:28:05;;;;;;;11.93;6.85;;;13.10;99.90;;;;;;4983549;28;20108;-72
2021/07/30 01:30:32;;;;;;;11.18;5.88;;;13.00;99.90;;;;;;4983138;28;20503;-72
2021/07/30 01:32:58;;;;;;;11.13;7.43;;;12.90;99.90;;;;;;4982490;28;20070;-72
2021/07/30 01:35:25;;;;;;;11.35;6.47;;;12.90;99.90;;;;;;4964152;28;20527;-74
2021/07/30 01:37:52;;;;;;;15.20;7.25;;;12.90;99.90;;;;;;4984702;28;20058;-74
2021/07/30 01:40:21;;;;;;;13.50;7.07;;;12.90;99.90;;;;;;4982906;28;20050;-74
2021/07/30 01:42:48;;;;;;;10.75;6.65;;;12.90;99.90;;;;;;4977661;28;20042;-73
2021/07/30 01:45:15;;;;;;;14.77;7.40;;;12.80;99.90;;;;;;4979293;28;20088;-72
2021/07/30 01:47:41;;;;;;;10.82;6.85;;;12.80;99.90;;;;;;4980352;28;20038;-74
2021/07/30 01:50:09;;;;;;;12.38;6.68;;;12.80;99.90;;;;;;4964396;28;20062;-73
2021/07/30 01:52:36;;;;;;;8.93;6.63;;;12.80;99.90;;;;;;4965099;28;20050;-74
2021/07/30 01:55:03;;;;;;;14.20;7.30;;;12.80;99.90;;;;;;4964991;28;20065;-74
2021/07/30 01:57:30;;;;;;;16.42;6.80;;;12.70;99.90;;;;;;4964683;28;20503;-72
2021/07/30 01:59:58;;;;;;;15.70;7.57;;;12.70;99.90;;;;;;4978664;28;20530;-72
2021/07/30 02:02:24;;;;;;;14.55;7.15;;;12.70;99.90;;;;;;4981678;28;20051;-72
2021/07/30 02:04:51;;;;;;;20.08;8.02;;;12.60;99.90;;;;;;4981860;28;20332;-73
2021/07/30 02:07:18;;;;;;;9.68;6.38;;;12.60;99.90;;;;;;4982345;28;20054;-72
2021/07/30 02:09:46;;;;;;;14.90;7.45;;;12.60;99.90;;;;;;4966564;28;20069;-73
2021/07/30 02:12:14;;;;;;;10.98;7.03;;;12.60;99.90;;;;;;4980929;28;20506;-74
2021/07/30 02:14:41;;;;;;;14.48;7.35;;;12.60;99.90;;;;;;4975593;28;20081;-74
2021/07/30 02:17:08;;;;;;;14.23;7.55;;;12.60;99.90;;;;;;4982086;28;20454;-74
2021/07/30 02:19:34;;;;;;;12.48;7.10;;;12.60;99.90;;;;;;4983179;28;20561;-74
2021/07/30 02:22:01;;;;;;;12.48;6.60;;;12.60;99.90;;;;;;4953251;28;20551;-74
2021/07/30 02:24:28;;;;;;;15.88;7.50;;;12.60;99.90;;;;;;4945408;28;20047;-73
2021/07/30 02:26:55;;;;;;;16.30;8.05;;;12.70;99.90;;;;;;4930899;28;20054;-73
2021/07/30 02:29:21;;;;;;;14.77;7.82;;;12.70;99.90;;;;;;4983656;28;20063;-73
2021/07/30 02:31:49;;;;;;;11.35;6.95;;;12.70;99.90;;;;;;4988490;28;20054;-72
2021/07/30 02:34:16;;;;;;;10.80;6.95;;;12.70;99.90;;;;;;4969385;28;20407;-73
2021/07/30 02:36:43;;;;;;;10.23;6.82;;;12.70;99.90;;;;;;4965870;28;20058;-73
2021/07/30 02:39:10;;;;;;;15.98;7.25;;;12.70;99.90;;;;;;4970109;28;20056;-72
2021/07/30 02:41:37;;;;;;;16.27;7.75;;;12.70;99.90;;;;;;4970726;28;20049;-73
2021/07/30 02:44:04;;;;;;;11.88;6.93;;;12.70;99.90;;;;;;4974537;28;20047;-73
2021/07/30 02:46:31;;;;;;;11.35;7.35;;;12.70;99.90;;;;;;4950869;28;20043;-73
2021/07/30 02:48:57;;;;;;;16.80;7.07;;;12.70;99.90;;;;;;4968573;28;20054;-73
2021/07/30 02:51:24;;;;;;;9.25;7.72;;;12.60;99.90;;;;;;4967383;28;20047;-73
2021/07/30 02:53:51;;;;;;;16.65;7.85;;;12.50;99.90;;;;;;4966217;28;20237;-73
2021/07/30 02:56:18;;;;;;;10.57;7.43;;;12.50;99.90;;;;;;4967844;28;20047;-75
2021/07/30 02:58:44;;;;;;;12.15;7.70;;;12.50;99.90;;;;;;4952983;28;20357;-73
2021/07/30 03:01:11;;;;;;;11.00;7.72;;;12.50;99.90;;;;;;4965559;28;20051;-73
2021/07/30 03:03:38;;;;;;;13.90;7.88;;;12.50;99.90;;;;;;4950697;28;20146;-73
2021/07/30 03:06:05;;;;;;;15.93;7.10;;;12.40;99.90;;;;;;4965489;28;20057;-73
2021/07/30 03:08:31;;;;;;;9.05;7.03;;;12.50;99.90;;;;;;4966621;28;20051;-73
2021/07/30 03:10:58;;;;;;;11.18;7.30;;;12.50;99.90;;;;;;4947723;28;20432;-73
2021/07/30 03:13:25;;;;;;;12.48;6.97;;;12.60;99.90;;;;;;4977258;28;20057;-72
2021/07/30 03:15:56;;;;;;;11.57;7.63;;;12.60;99.90;;;;;;4967990;28;20054;-73
2021/07/30 03:18:23;;;;;;;18.00;7.40;;;12.60;99.90;;;;;;4985226;28;20062;-73
2021/07/30 03:20:50;;;;;;;16.58;7.63;;;12.60;99.90;;;;;;4981862;28;20160;-73
2021/07/30 03:23:16;;;;;;;14.35;7.00;;;12.60;99.90;;;;;;4965869;28;20407;-73
2021/07/30 03:25:43;;;;;;;12.38;7.30;;;12.60;99.90;;;;;;4965256;28;20062;-73
2021/07/30 03:28:10;;;;;;;13.57;7.53;;;12.60;99.90;;;;;;4968418;28;20050;-73
2021/07/30 03:30:37;;;;;;;10.82;6.28;;;12.70;99.90;;;;;;4976684;28;20443;-74
2021/07/30 03:33:04;;;;;;;16.88;7.43;;;12.70;99.90;;;;;;4984026;28;20054;-74
2021/07/30 03:35:34;;;;;;;13.02;7.82;;;12.80;99.90;;;;;;4965568;28;20207;-72
2021/07/30 03:38:01;;;;;;;8.38;6.97;;;12.80;99.90;;;;;;4967626;28;20492;-74
2021/07/30 03:40:28;;;;;;;11.15;6.40;;;12.90;99.90;;;;;;4973674;28;20047;-73
2021/07/30 03:42:55;;;;;;;13.75;6.40;;;13.00;99.90;;;;;;4973603;28;20042;-72
2021/07/30 03:45:22;;;;;;;12.73;7.03;;;13.00;99.90;;;;;;4983286;28;20062;-72
2021/07/30 03:47:49;;;;;;;18.45;7.55;;;13.00;99.90;;;;;;4985936;28;20454;-72
2021/07/30 03:50:15;;;;;;;12.10;7.18;;;13.10;99.90;;;;;;4968846;28;20054;-72
2021/07/30 03:52:42;;;;;;;13.50;7.25;;;13.20;99.90;;;;;;4968438;28;20058;-72
2021/07/30 03:55:09;;;;;;;15.55;7.38;;;13.20;99.90;;;;;;4966748;28;20101;-73
2021/07/30 03:57:36;;;;;;;16.67;6.97;;;13.20;99.90;;;;;;4967568;28;20059;-72
2021/07/30 04:00:04;;;;;;;8.27;6.28;;;13.20;99.90;;;;;;4966061;28;20059;-72
2021/07/30 04:02:32;;;;;;;12.27;6.85;;;13.30;99.90;;;;;;4966542;28;20051;-74
2021/07/30 04:05:00;;;;;;;15.02;7.75;;;13.40;99.90;;;;;;4966006;28;20065;-72
2021/07/30 04:07:27;;;;;;;13.70;7.03;;;13.40;99.90;;;;;;4966257;28;20117;-71
2021/07/30 04:09:54;;;;;;;9.90;7.05;;;13.50;99.90;;;;;;4966093;28;20051;-72
2021/07/30 04:12:22;;;;;;;15.52;7.60;;;13.50;99.90;;;;;;4974860;28;20400;-72
2021/07/30 04:14:48;;;;;;;10.73;6.95;;;13.50;99.90;;;;;;4978178;28;20054;-72
2021/07/30 04:17:15;;;;;;;13.18;6.82;;;13.60;99.90;;;;;;4983562;28;20054;-73
2021/07/30 04:19:46;;;;;;;17.50;7.28;;;13.70;99.90;;;;;;4985860;28;20274;-73
2021/07/30 04:22:13;;;;;;;11.90;7.00;;;13.70;99.90;;;;;;4972193;28;20066;-71
2021/07/30 04:24:40;;;;;;;14.75;6.53;;;13.70;99.90;;;;;;4963990;28;20206;-74
2021/07/30 04:27:07;;;;;;;14.75;7.95;;;13.70;99.90;;;;;;4964769;28;20050;-72
2021/07/30 04:29:38;;;;;;;10.57;6.32;;;13.70;99.90;;;;;;4948863;28;20055;-72
2021/07/30 04:32:10;;;;;;;10.00;6.70;;;13.80;99.90;;;;;;4970843;28;20054;-72
2021/07/30 04:34:38;;;;;;;9.93;6.70;;;13.80;99.90;;;;;;4970875;28;20059;-74
2021/07/30 04:37:05;;;;;;;12.82;6.32;;;13.70;99.90;;;;;;4964562;28;20047;-74
2021/07/30 04:39:33;;;;;;;13.00;7.13;;;13.80;99.90;;;;;;4964586;28;20071;-72
2021/07/30 04:42:01;;;;;;;12.00;6.70;;;14.00;99.90;;;;;;4954996;28;20089;-72
2021/07/30 04:44:28;;;;;;;10.23;7.07;;;14.00;99.90;;;;;;4957766;28;20050;-71
2021/07/30 04:46:55;;;;;;;12.15;6.72;;;14.10;99.90;;;;;;4965321;28;20528;-73
2021/07/30 04:49:22;;;;;;;21.35;7.57;;;14.20;99.90;;;;;;4966684;28;20059;-71
2021/07/30 04:52:00;;;;;;;8.90;6.90;;;14.30;99.90;;;;;;4948623;28;20050;-74
2021/07/30 04:54:27;;;;;;;10.43;6.50;;;14.30;99.90;;;;;;4964572;28;20059;-73
2021/07/30 04:56:54;;;;;;;12.73;7.38;;;14.40;99.90;;;;;;4965275;28;20492;-73
2021/07/30 04:59:20;;;;;;;9.65;6.40;;;14.50;99.90;;;;;;4964464;28;20499;-72
2021/07/30 05:01:47;;;;;;;12.88;6.03;;;14.50;99.90;;;;;;4948247;28;20470;-75
2021/07/30 05:04:14;;;;;;;11.10;6.72;;;14.60;99.90;;;;;;4962900;28;20062;-73
2021/07/30 05:06:41;;;;;;;10.93;6.85;;;14.70;99.90;;;;;;4949521;28;20701;-72
2021/07/30 05:09:08;;;;;;;20.20;6.78;;;14.80;99.90;;;;;;4964625;28;20062;-73
2021/07/30 05:11:34;;;;;;;10.05;7.05;;;14.90;99.90;;;;;;4968529;28;20042;-73
2021/07/30 05:14:01;;;;;;;12.57;7.18;;;15.00;99.90;;;;;;4978302;28;20066;-73
2021/07/30 05:16:28;;;;;;;12.95;7.68;;;15.00;99.90;;;;;;4984183;28;20046;-72
2021/07/30 05:18:55;;;;;;;11.95;6.80;;;15.10;99.90;;;;;;4985180;28;20570;-71
2021/07/30 05:21:21;;;;;;;17.17;7.35;;;15.10;99.90;;;;;;4976659;28;20072;-72
2021/07/30 05:23:48;;;;;;;16.30;7.65;;;15.20;99.90;;;;;;4964643;28;20043;-72
2021/07/30 05:26:15;;;;;;;13.23;6.63;;;15.20;99.90;;;;;;4964951;28;20050;-74
2021/07/30 05:28:42;;;;;;;13.13;7.50;;;15.30;99.90;;;;;;4965777;28;20134;-73
2021/07/30 05:31:17;;;;;;;13.43;7.72;;;15.30;99.90;;;;;;4963995;28;20051;-72
2021/07/30 05:33:45;;;;;;;12.73;7.38;;;15.30;99.90;;;;;;4965605;28;20526;-74
2021/07/30 05:36:18;;;;;;;9.02;6.80;;;15.40;99.90;;;;;;4983146;28;20074;-73
2021/07/30 05:38:48;;;;;;;13.38;7.63;;;15.60;99.90;;;;;;4984794;28;20101;-72
2021/07/30 05:41:16;;;;;;;11.57;6.80;;;15.70;99.90;;;;;;4981531;28;20510;-73
2021/07/30 05:43:44;;;;;;;11.50;7.35;;;15.80;99.90;;;;;;4974077;28;20204;-72
2021/07/30 05:46:14;;;;;;;12.73;6.72;;;15.90;99.90;;;;;;4984170;28;20491;-72
2021/07/30 05:48:41;;;;;;;12.52;7.28;;;16.00;99.90;;;;;;4967090;28;20054;-72
2021/07/30 05:51:09;;;;;;;9.23;6.95;;;16.10;99.90;;;;;;4966536;28;20431;-74
2021/07/30 05:53:36;;;;;;;12.25;6.90;;;16.30;99.90;;;;;;4960930;28;20328;-71
2021/07/30 05:56:03;;;;;;;10.90;7.30;;;16.30;99.90;;;;;;4967367;28;20314;-73
2021/07/30 05:58:33;;;;;;;12.05;7.10;;;16.60;99.90;;;;;;4967269;28;20055;-74
2021/07/30 06:01:00;;;;;;;9.75;7.25;;;16.70;99.90;;;;;;4973668;28;20046;-72
2021/07/30 06:03:27;;;;;;;11.57;7.15;;;16.80;99.90;;;;;;4964944;28;20035;-72
2021/07/30 06:05:54;;;;;;;9.73;7.15;;;17.00;99.90;;;;;;4977060;28;20155;-73
2021/07/30 06:08:21;;;;;;;10.57;8.10;;;17.10;99.90;;;;;;4987087;28;20050;-72
2021/07/30 06:10:48;;;;;;;12.57;8.32;;;17.20;99.90;;;;;;4976016;28;20492;-73
2021/07/30 06:13:14;;;;;;;11.88;7.63;;;17.20;99.90;;;;;;4955495;28;20049;-73
2021/07/30 06:15:41;;;;;;;11.00;8.00;;;17.40;99.90;;;;;;4970894;28;20062;-74
2021/07/30 06:18:08;;;;;;;12.15;8.05;;;17.50;99.90;;;;;;4967489;28;20174;-72
2021/07/30 06:20:35;;;;;;;9.15;8.20;;;17.70;99.90;;;;;;4968243;28;20054;-74
2021/07/30 06:23:02;;;;;;;14.05;8.68;;;17.90;99.90;;;;;;4950539;28;20057;-74
2021/07/30 06:25:29;;;;;;;10.73;8.50;;;18.00;99.90;;;;;;4969439;28;20053;-71
2021/07/30 06:27:55;;;;;;;10.35;8.20;;;18.30;99.90;;;;;;4980105;28;20090;-72
2021/07/30 06:30:22;;;;;;;10.02;8.38;;;18.30;99.90;;;;;;4967668;28;20062;-73
2021/07/30 06:32:49;;;;;;;10.82;9.00;;;18.20;99.90;;;;;;4968691;28;20050;-72
2021/07/30 06:35:16;;;;;;;12.88;8.50;;;18.30;99.90;;;;;;4948176;28;20678;-72
2021/07/30 06:37:43;;;;;;;16.65;9.88;;;18.30;99.90;;;;;;4984462;28;20100;-72
2021/07/30 06:40:10;;;;;;;11.25;8.32;;;18.30;99.90;;;;;;4986904;28;20066;-72
2021/07/30 06:42:37;;;;;;;13.10;8.20;;;18.20;99.90;;;;;;4983888;28;20050;-74
2021/07/30 06:45:06;;;;;;;12.52;9.20;;;18.20;99.90;;;;;;4981083;28;20470;-73
2021/07/30 06:47:34;;;;;;;13.38;9.50;;;18.20;99.90;;;;;;4988062;28;20054;-72
2021/07/30 06:50:01;;;;;;;11.85;8.80;;;18.30;99.90;;;;;;4987131;28;20061;-72
2021/07/30 06:52:27;;;;;;;10.32;8.50;;;18.40;99.90;;;;;;4951763;28;20053;-72
2021/07/30 06:54:55;;;;;;;11.07;8.70;;;18.60;99.90;;;;;;4967948;28;20049;-72
2021/07/30 06:57:22;;;;;;;10.55;9.35;;;18.80;99.90;;;;;;4969581;28;20054;-73
2021/07/30 06:59:49;;;;;;;9.48;8.52;;;18.80;99.90;;;;;;4951255;28;20050;-74
2021/07/30 07:02:16;;;;;;;10.35;8.35;;;18.90;99.90;;;;;;4968069;28;20107;-73
2021/07/30 07:04:43;;;;;;;12.77;8.27;;;19.00;99.90;;;;;;4969802;28;20062;-71
2021/07/30 07:07:10;;;;;;;9.77;8.88;;;19.00;99.90;;;;;;4973755;28;20235;-73
2021/07/30 07:09:37;;;;;;;9.88;8.70;;;19.10;99.90;;;;;;4967831;28;20054;-74
2021/07/30 07:12:04;;;;;;;11.38;8.20;;;19.10;99.90;;;;;;4964777;28;20047;-72
2021/07/30 07:14:31;;;;;;;9.13;8.23;;;19.10;99.90;;;;;;4976103;28;20062;-73
2021/07/30 07:16:58;;;;;;;9.32;8.65;;;19.40;99.90;;;;;;4955798;28;20055;-73
2021/07/30 07:19:25;;;;;;;10.30;9.25;;;19.70;99.90;;;;;;4961522;28;20082;-74
2021/07/30 07:21:54;;;;;;;10.48;9.57;;;20.10;99.90;;;;;;4953522;28;20057;-73
2021/07/30 07:24:21;;;;;;;11.65;8.95;;;20.00;99.90;;;;;;4985438;28;20054;-73
2021/07/30 07:26:48;;;;;;;10.25;9.45;;;20.10;99.90;;;;;;4985693;28;20301;-73
2021/07/30 07:29:15;;;;;;;10.60;9.52;;;20.20;99.90;;;;;;4987231;28;20046;-72
2021/07/30 07:31:44;;;;;;;10.80;9.90;;;20.30;99.90;;;;;;4986416;28;20050;-73
2021/07/30 07:34:12;;;;;;;12.55;9.20;;;20.40;99.90;;;;;;4958514;28;20511;-71
2021/07/30 07:36:39;;;;;;;10.90;9.90;;;20.30;99.90;;;;;;4967179;28;20053;-74
2021/07/30 07:39:05;;;;;;;10.30;9.35;;;20.60;99.90;;;;;;4965791;28;20527;-73
2021/07/30 07:41:32;;;;;;;10.23;9.23;;;20.80;99.90;;;;;;4968545;28;20054;-73
2021/07/30 07:43:59;;;;;;;10.57;9.68;;;21.00;99.90;;;;;;4965579;28;20524;-73
2021/07/30 07:46:26;;;;;;;11.32;10.25;;;21.40;99.90;;;;;;4974280;28;20466;-74
2021/07/30 07:48:53;;;;;;;10.48;9.65;;;21.70;99.90;;;;;;4986924;28;20065;-74
2021/07/30 07:51:19;;;;;;;14.07;9.68;;;21.70;99.90;;;;;;4986216;28;20104;-73
2021/07/30 07:53:46;;;;;;;9.98;9.38;;;21.90;99.90;;;;;;4984988;28;20065;-72
2021/07/30 07:56:13;;;;;;;11.38;10.38;;;21.60;99.90;;;;;;4973535;28;20062;-73
2021/07/30 07:58:39;;;;;;;10.90;9.88;;;21.50;99.90;;;;;;4965975;28;20110;-73
2021/07/30 08:01:06;;;;;;;14.20;10.82;;;21.50;99.90;;;;;;4964990;28;20054;-74
2021/07/30 08:03:33;;;;;;;11.05;10.27;;;21.70;99.90;;;;;;4972727;28;20050;-74
2021/07/30 08:06:00;;;;;;;11.65;10.85;;;21.70;99.90;;;;;;4982355;28;20447;-73
2021/07/30 08:08:27;;;;;;;11.05;10.15;;;21.60;99.90;;;;;;4968705;28;20058;-73
2021/07/30 08:10:53;;;;;;;11.20;10.38;;;21.60;99.90;;;;;;4966191;28;20043;-73
2021/07/30 08:13:20;;;;;;;11.65;10.80;;;21.20;99.90;;;;;;4968421;28;20050;-73
2021/07/30 08:15:47;;;;;;;12.02;10.98;;;21.30;99.90;;;;;;4964175;28;20047;-72
2021/07/30 08:18:14;;;;;;;11.30;10.63;;;21.50;99.90;;;;;;4948975;28;20043;-73
2021/07/30 08:20:41;;;;;;;11.25;10.55;;;21.80;99.90;;;;;;4964796;28;20051;-73
2021/07/30 08:23:07;;;;;;;11.35;10.50;;;21.90;99.90;;;;;;4966463;28;20055;-72
2021/07/30 08:25:34;;;;;;;12.63;11.43;;;21.90;99.90;;;;;;4982928;28;20263;-72
2021/07/30 08:28:04;;;;;;;11.27;10.32;;;22.10;99.90;;;;;;4984112;28;20556;-72
2021/07/30 08:30:31;;;;;;;11.45;10.75;;;22.00;99.90;;;;;;4951983;28;20058;-72
2021/07/30 08:32:58;;;;;;;11.45;10.55;;;22.20;99.90;;;;;;4983144;28;20050;-72
2021/07/30 08:35:25;;;;;;;11.70;10.85;;;22.20;99.90;;;;;;4975881;28;20340;-74
2021/07/30 08:37:52;;;;;;;11.27;10.60;;;22.10;99.90;;;;;;4966418;28;20470;-74
2021/07/30 08:40:19;;;;;;;10.88;10.18;;;22.10;99.90;;;;;;4962192;28;20110;-72
2021/07/30 08:42:46;;;;;;;11.02;10.10;;;22.20;99.90;;;;;;4954778;28;20054;-73
2021/07/30 08:45:13;;;;;;;11.65;10.43;;;22.40;99.90;;;;;;4983564;28;20053;-74
2021/07/30 08:47:48;;;;;;;11.18;10.20;;;22.30;99.90;;;;;;5060703;28;20406;-72
2021/07/30 08:50:15;;;;;;;11.10;10.30;;;22.10;99.90;;;;;;5059928;28;20052;-72
2021/07/30 08:52:43;;;;;;;10.80;9.80;;;22.00;99.90;;;;;;5039790;28;20159;-72
2021/07/30 08:55:12;;;;;;;11.77;10.88;;;22.00;99.90;;;;;;5038548;28;20099;-71
2021/07/30 08:57:45;;;;;;;11.82;11.02;;;21.70;99.90;;;;;;5039768;28;20049;-73
2021/07/30 09:00:14;;;;;;;12.30;11.30;;;21.80;99.90;;;;;;5040831;28;20065;-72
2021/07/30 09:02:41;;;;;;;12.02;11.05;;;22.00;99.90;;;;;;5039446;28;20091;-72
2021/07/30 09:05:27;;;;;;;11.57;10.88;;;22.40;99.90;;;;;;5038184;28;20124;-72
2021/07/30 09:07:56;;;;;;;11.38;10.68;;;22.60;99.90;;;;;;5059873;28;20048;-73
2021/07/30 09:10:29;;;;;;;12.50;11.30;;;22.70;99.90;;;;;;5042978;28;20060;-74
2021/07/30 09:13:25;;;;;;;13.02;11.80;;;22.80;99.90;;;;;;5059747;28;20056;-72
2021/07/30 09:16:02;;;;;;;11.30;10.60;;;22.80;99.90;;;;;;5059213;28;20044;-72
2021/07/30 09:18:31;;;;;;;11.93;11.05;;;22.50;99.90;;;;;;5057753;28;20091;-72
2021/07/30 09:21:16;;;;;;;11.05;10.18;;;22.30;99.90;;;;;;5060002;28;20041;-72
2021/07/30 09:23:56;;;;;;;11.48;10.50;;;22.20;99.90;;;;;;5060625;28;20444;-72
2021/07/30 09:26:36;;;;;;;11.45;10.60;;;22.00;99.90;;;;;;5034846;28;20041;-72
2021/07/30 09:29:13;;;;;;;11.88;10.90;;;22.10;99.90;;;;;;5040517;28;20281;-73
2021/07/30 09:31:46;;;;;;;11.85;10.90;;;22.30;99.90;;;;;;5046958;28;20053;-73
2021/07/30 09:34:37;;;;;;;12.32;11.20;;;22.70;99.90;;;;;;5061956;28;20059;-72
2021/07/30 09:37:19;;;;;;;11.57;10.68;;;22.80;99.90;;;;;;5062818;28;20102;-72
2021/07/30 09:39:49;;;;;;;11.23;10.48;;;22.90;99.90;;;;;;5038757;28;20191;-72
2021/07/30 09:42:17;;;;;;;12.88;11.48;;;23.10;99.90;;;;;;5055618;28;20056;-73
2021/07/30 09:44:44;;;;;;;12.32;11.23;;;23.20;99.90;;;;;;5064209;28;20064;-72
2021/07/30 09:47:24;;;;;;;11.50;10.65;;;23.20;99.90;;;;;;5065222;28;20048;-73
2021/07/30 09:49:59;;;;;;;11.98;10.68;;;23.40;99.90;;;;;;5080851;28;20083;-74
2021/07/30 09:52:28;;;;;;;12.00;11.20;;;23.40;99.90;;;;;;5079557;28;20500;-73
2021/07/30 09:55:01;;;;;;;11.18;10.43;;;23.40;99.90;;;;;;5071539;28;20057;-73
2021/07/30 09:57:31;;;;;;;12.15;11.25;;;23.70;99.90;;;;;;5018047;28;20383;-73
2021/07/30 10:00:06;;;;;;;10.98;10.20;;;24.00;99.90;;;;;;5026358;28;20414;-73
2021/07/30 10:02:33;;;;;;;;;;;24.20;99.90;;;;;;5034419;28;20048;-73
2021/07/30 10:05:02;;;;;;;11.52;10.73;;;24.00;99.90;;;;;;5045658;28;20134;-73
2021/07/30 10:07:30;;;;;;;10.60;9.85;;;23.90;99.90;;;;;;5045979;28;20056;-73
2021/07/30 10:10:08;;;;;;;12.30;11.15;;;23.80;99.90;;;;;;5045359;28;20413;-73
2021/07/30 10:12:38;;;;;;;11.77;10.95;;;23.90;99.90;;;;;;5052918;28;20052;-73
2021/07/30 10:15:07;;;;;;;12.77;11.70;;;23.50;99.90;;;;;;5042203;28;20049;-73
2021/07/30 10:17:35;;;;;;;11.68;10.90;;;23.70;99.90;;;;;;5043771;28;20053;-73
2021/07/30 10:20:07;;;;;;;11.32;10.57;;;23.80;99.90;;;;;;5048471;28;20057;-73
2021/07/30 10:22:55;;;;;;;10.65;10.02;;;23.70;99.90;;;;;;5043067;28;20160;-72
2021/07/30 10:25:53;;;;;;;11.40;10.63;;;23.50;99.90;;;;;;5045481;28;20457;-73
2021/07/30 10:28:26;;;;;;;11.45;10.70;;;23.50;99.90;;;;;;5041594;28;20406;-73
2021/07/30 10:31:09;;;;;;;10.75;9.90;;;23.40;99.90;;;;;;5027734;28;20076;-73
2021/07/30 10:33:40;;;;;;;11.77;10.65;;;23.50;99.90;;;;;;5047345;28;20523;-73
2021/07/30 10:36:08;;;;;;;11.55;10.70;;;23.60;99.90;;;;;;5039272;28;20053;-73
2021/07/30 10:38:36;;;;;;;11.60;10.90;;;23.50;99.90;;;;;;5045742;28;20060;-73
2021/07/30 10:41:08;;;;;;;11.52;10.82;;;23.30;99.90;;;;;;5009904;28;20283;-72
2021/07/30 10:43:50;;;;;;;11.70;10.90;;;23.50;99.90;;;;;;5035637;28;20049;-73
2021/07/30 10:46:18;;;;;;;11.85;10.93;;;23.50;99.90;;;;;;5025256;28;20115;-73
2021/07/30 10:48:54;;;;;;;11.52;10.73;;;23.60;99.90;;;;;;5027611;28;20054;-73
2021/07/30 10:51:24;;;;;;;;;;;24.00;99.90;;;;;;5024752;28;20107;-72
2021/07/30 10:53:54;;;;;;;11.98;11.23;;;24.50;99.90;;;;;;5024280;28;19947;-73
2021/07/30 10:56:21;;;;;;;12.10;11.10;;;24.40;99.90;;;;;;5039112;28;20063;-73
2021/07/30 10:58:53;;;;;;;12.40;11.30;;;24.30;99.90;;;;;;5045763;28;20075;-72
2021/07/30 11:01:27;;;;;;;12.40;11.52;;;24.40;99.90;;;;;;5045746;28;20061;-74
2021/07/30 11:03:56;;;;;;;12.35;11.38;;;24.40;99.90;;;;;;5043108;28;20060;-73
2021/07/30 11:06:50;;;;;;;11.57;10.85;;;24.40;99.90;;;;;;5026089;28;20152;-73
2021/07/30 11:09:17;;;;;;;11.43;10.70;;;24.40;99.90;;;;;;5042416;28;20049;-74
2021/07/30 11:11:51;;;;;;;12.18;11.10;;;24.40;99.90;;;;;;5048739;28;20543;-74
2021/07/30 11:14:18;;;;;;;11.82;11.23;;;24.50;99.90;;;;;;5056850;28;20044;-75
2021/07/30 11:16:46;;;;;;;11.73;10.98;;;24.50;99.90;;;;;;5045958;28;20107;-73
2021/07/30 11:19:15;;;;;;;12.23;11.32;;;24.60;99.90;;;;;;5051021;28;20058;-73
2021/07/30 11:21:43;;;;;;;11.02;10.43;;;24.40;99.90;;;;;;5045477;28;20720;-73
2021/07/30 11:24:10;;;;;;;11.98;11.27;;;24.10;99.90;;;;;;5041678;28;20553;-73
2021/07/30 11:26:38;;;;;;;11.07;10.45;;;23.90;99.90;;;;;;5043010;28;20044;-73
2021/07/30 11:29:26;;;;;;;9.90;9.40;;;24.00;99.90;;;;;;5030023;28;20054;-73
2021/07/30 11:31:59;;;;;;;11.50;10.50;;;24.20;99.90;;;;;;5034791;28;20071;-73
2021/07/30 11:34:29;;;;;;;10.55;9.88;;;24.20;99.90;;;;;;5045159;28;20253;-73
2021/07/30 11:36:58;;;;;;;11.57;10.52;;;24.60;99.90;;;;;;5044777;28;20135;-74
2021/07/30 11:39:43;;;;;;;10.85;10.27;;;25.00;99.90;;;;;;5031057;28;20111;-74
2021/07/30 11:42:11;;;;;;;9.90;9.40;;;25.60;99.90;;;;;;5039843;28;20055;-72
2021/07/30 11:44:46;;;;;;;10.77;10.00;;;25.70;99.90;;;;;;5051596;28;20051;-72
2021/07/30 11:47:14;;;;;;;12.93;11.85;;;25.40;99.90;;;;;;5043040;28;20402;-73
2021/07/30 11:49:42;;;;;;;10.73;10.10;;;25.00;99.90;;;;;;5032112;28;20056;-73
2021/07/30 11:52:12;;;;;;;10.68;10.07;;;25.10;99.90;;;;;;5023067;28;20050;-72
2021/07/30 11:54:40;;;;;;;10.23;9.63;;;25.40;99.90;;;;;;5023117;28;20061;-73
2021/07/30 11:57:07;;;;;;;10.00;9.20;;;25.40;99.90;;;;;;5042795;28;20059;-72
2021/07/30 11:59:47;;;;;;;11.98;11.07;;;25.20;99.90;;;;;;5036953;28;20484;-73
2021/07/30 12:02:15;;;;;;;10.48;9.77;;;25.20;99.90;;;;;;5029464;28;20305;-72
2021/07/30 12:04:58;;;;;;;10.65;9.80;;;25.10;99.90;;;;;;5042910;28;20564;-72
2021/07/30 12:07:35;;;;;;;10.93;9.80;;;24.90;99.90;;;;;;5043929;28;20068;-73
2021/07/30 12:10:07;;;;;;;10.73;9.93;;;25.10;99.90;;;;;;5040527;28;20131;-73
2021/07/30 12:12:41;;;;;;;10.70;10.20;;;25.20;99.90;;;;;;5042918;28;20057;-73
2021/07/30 12:15:10;;;;;;;11.18;10.40;;;25.30;99.90;;;;;;5041517;28;20064;-73
2021/07/30 12:17:37;;;;;;;11.38;10.60;;;24.90;99.90;;;;;;5042104;28;20110;-73
2021/07/30 12:20:11;;;;;;;12.02;11.23;;;24.90;99.90;;;;;;5035973;28;20216;-73
2021/07/30 12:22:46;;;;;;;11.50;10.68;;;25.20;99.90;;;;;;5023721;28;20057;-73
2021/07/30 12:25:17;;;;;;;10.05;9.43;;;25.70;99.90;;;;;;5023523;28;20061;-73
2021/07/30 12:27:45;;;;;;;10.13;9.50;;;25.50;99.90;;;;;;5022984;28;20213;-73
2021/07/30 12:30:30;;;;;;;11.00;10.40;;;25.10;99.90;;;;;;5028065;28;20053;-73
2021/07/30 12:32:57;;;;;;;10.60;9.98;;;25.00;99.90;;;;;;5042593;28;20347;-73
2021/07/30 12:35:36;;;;;;;11.57;10.27;;;24.90;99.90;;;;;;5044083;28;20311;-74
2021/07/30 12:38:08;;;;;;;10.95;10.20;;;25.00;99.90;;;;;;5044577;28;20506;-73
2021/07/30 12:40:38;;;;;;;10.70;10.00;;;24.90;99.90;;;;;;5050655;28;20047;-72
2021/07/30 12:43:16;;;;;;;10.82;10.02;;;24.90;99.90;;;;;;5053909;28;20057;-73
2021/07/30 12:45:45;;;;;;;10.55;9.75;;;24.60;99.90;;;;;;5062922;28;20336;-72